x

Western Gulf Of Alaska - 175nm Se Of Kodiak, Ak (46001) Wave Buoy

6:50am - Sat 13th Feb 2016 All times are AKST. -9 hours from GMT.

  • Sig Wave height 9.2ft
  • Peak Period 10s
  • Average Period 6s
  • Wind
    27mph, 34mph gusts
  • Sea Temp 42°f
  • Air Temp 41°f
  • Sea Pressure 987.8mb
  • Western Gulf Of Alaska  - 175nm Se Of Kodiak, Ak
  • Western Gulf Of Alaska  - 175nm Se Of Kodiak, Ak

More Historic Weather Station data

Upgrade to MSW Pro to gain access to the past 30 days of data for over 8000 Wavebouys and Weather Stations around the globe.

Join Pro

Comparision Forecast

View Surf forecast
   
Sat 02/13 6:50am 9ft 10s 6s 27 34 mph 987.8mb 42f 41f
5:50am 8ft 10s 6s 27 34 mph 988.7mb 42f 41f
4:50am 8.5ft 10s 6s 22 29 mph 989.7mb 42f 41f
3:50am 8.5ft 10s 6s 20 25 mph 990.5mb 42f 42f
2:50am 8ft 10s 6s 20 25 mph 991.3mb 42f 41f
1:50am 8ft 9s 6s 16 20 mph 991.9mb 42f 41f
12:50am 8ft 10s 6s 18 22 mph 992.5mb 42f 41f
Fri 02/12 11:50pm 8.5ft 10s 6s 18 22 mph 992.9mb 42f 41f
10:50pm 9ft 10s 7s 18 20 mph 993mb 42f 41f
9:50pm 9ft 10s 7s 18 22 mph 993.1mb 42f 40f
8:50pm 8ft 11s 6s 13 18 mph 993mb 42f 40f
7:50pm 9.5ft 11s 7s 16 18 mph 993.1mb 42f 39f
6:50pm 10ft 11s 7s 16 20 mph 993mb 42f 39f
5:50pm 10ft 12s 7s 18 25 mph 992.7mb 42f 39f
4:50pm 10ft 11s 6s 20 27 mph 992.3mb 42f 40f
3:50pm 11ft 11s 7s 20 25 mph 991.7mb 42f 40f
2:50pm 11.5ft 11s 7s 22 27 mph 991.5mb 42f 39f
1:50pm 11.5ft 11s 7s 22 29 mph 991.1mb 42f 38f
12:50pm 13ft 12s 7s 25 31 mph 990.6mb 42f 39f
11:50am 12ft 11s 7s 27 34 mph 989.8mb 42f 40f
10:50am 12ft 12s 7s 29 34 mph 988.7mb 42f 40f
9:50am 11.5ft 10s 7s 25 31 mph 987.8mb 42f 40f
8:50am 9ft 11s 7s 20 25 mph 987mb 42f 41f
7:50am 9ft 11s 7s 20 25 mph 986.2mb 42f 41f
6:50am 8ft 11s 6s 18 22 mph 985.6mb 42f 41f
5:50am 8ft 12s 6s 20 25 mph 985.3mb 42f 41f
4:50am 8ft 13s 6s 20 22 mph 985.3mb 42f 41f
3:50am 8ft 10s 6s 18 22 mph 985.6mb 42f 41f
2:50am 8.5ft 11s 7s 18 22 mph 985.9mb 42f 41f
1:50am 8ft 9s 6s 20 22 mph 986.4mb 42f 41f
12:50am 9ft 11s 7s 18 22 mph 987.2mb 42f 41f
Thu 02/11 11:50pm 9.5ft 9s 7s 16 18 mph 988.3mb 42f 41f
10:50pm 10ft 11s 7s 18 22 mph 989.2mb 42f 42f
9:50pm 11ft 10s 7s 18 20 mph 990.5mb 42f 42f
8:50pm 11ft 11s 7s 13 20 mph 991.8mb 42f 41f
7:50pm 12ft 11s 8s 13 20 mph 993.4mb 42f 42f
6:50pm 12ft 11s 8s 9 11 mph 994.3mb 42f 42f
5:50pm 12ft 11s 8s 11 16 mph 994.9mb 42f 42f
4:50pm 13ft 12s 8s 9 16 mph 995.6mb 42f 42f
3:50pm 13ft 12s 8s 13 16 mph 996.2mb 42f 42f
2:50pm 12ft 13s 8s 16 20 mph 996.6mb 42f 42f
1:50pm 14ft 11s 8s 11 16 mph 996.8mb 42f 42f
12:50pm 13ft 11s 7s 16 18 mph 996.8mb 42f 42f
11:50am 13.5ft 11s 7s 20 25 mph 996.8mb 42f 42f
10:50am 14ft 11s 7s 27 31 mph 996.2mb 42f 42f
9:50am 12ft 8s 6s 29 34 mph 995.1mb 42f 42f
8:50am 12ft 8s 6s 25 31 mph 993.7mb 42f 41f
7:50am 11.5ft 8s 7s 27 34 mph 992mb 42f 42f
6:50am 11ft 11s 7s 29 36 mph 990.1mb 42f 41f
5:50am 11ft 11s 7s 25 31 mph 988.5mb 42f 42f
4:50am 11ft 11s 8s 16 20 mph 987.2mb 42f 42f
3:50am 11.5ft 11s 8s 13 16 mph 986.5mb 42f 42f
2:50am 11.5ft 12s 8s 11 13 mph 985.9mb 42f 42f
1:50am 11ft 11s 7s 9 13 mph 985mb 42f 42f
12:50am 12ft 12s 8s 9 11 mph 984.7mb 42f 42f
Wed 02/10 11:50pm 12ft 12s 8s 13 18 mph 984.4mb 42f 43f
10:50pm 12ft 10s 7s 16 18 mph 984.3mb 42f 43f
9:50pm 12ft 13s 7s 18 22 mph 984.2mb 42f 43f
8:50pm 12.5ft 13s 7s 20 25 mph 984.1mb 42f 43f
7:50pm 13ft 11s 7s 22 27 mph 984.5mb 42f 42f
6:50pm 13ft 12s 7s 22 29 mph 985.1mb 42f 42f
5:50pm 15ft 12s 8s 27 34 mph 985.9mb 42f 42f
4:50pm 16.5ft 13s 9s 25 29 mph 987.3mb 42f 42f
3:50pm 16.5ft 11s 9s 20 27 mph 988.5mb 42f 42f
2:50pm 15.5ft 14s 9s 18 25 mph 989.4mb 42f 42f
1:50pm 14.5ft 14s 8s 18 22 mph 990.3mb 42f 42f
12:50pm 14ft 11s 8s 16 18 mph 990.8mb 42f 42f
11:50am 13ft 9s 7s 13 18 mph 991.7mb 42f 42f
10:50am 12ft 10s 7s 13 16 mph 991.8mb 42f 43f
9:50am 12ft 10s 7s 18 22 mph 991.8mb 42f 43f
8:50am 12ft 10s 7s 18 22 mph 991.1mb 42f 42f
7:50am 13ft 11s 8s 20 22 mph 990.3mb 42f 42f
6:50am 12.5ft 10s 7s 20 25 mph 989.7mb 42f 42f
5:50am 15ft 11s 8s 18 25 mph 988.9mb 42f 42f
4:50am 15ft 11s 7s 22 29 mph 988.2mb 42f 42f
3:50am 15.5ft 10s 7s 22 27 mph 987.8mb 42f 43f
2:50am 16.5ft 11s 7s 25 29 mph 987.3mb 42f 42f
1:50am 17.5ft 10s 8s 25 31 mph 987.1mb 42f 43f
12:50am 18.5ft 10s 8s 29 34 mph 987.4mb 42f 42f
Tue 02/09 11:50pm 19ft 9s 7s 36 43 mph 987.7mb 42f 42f
10:50pm 19.5ft 10s 8s 38 47 mph 988.8mb 42f 42f
9:50pm 20.5ft 10s 8s 40 51 mph 989.6mb 42f 42f
8:50pm 17.5ft 9s 7s 40 49 mph 990.9mb 42f 42f
7:50pm 16ft 9s 7s 43 54 mph 991.7mb 42f 43f
6:50pm 16ft 8s 7s 40 49 mph 993.3mb 42f 42f
5:50pm 14.5ft 8s 7s 38 51 mph 995.3mb 42f 42f